• Join FlightAware (Why Join?)
  • Login
  • US Flag 
04:38PM EST


 

Airport Tracker/Info


-or-


 

Live Flight TrackerFlight Track Log ✈ ASQ4272 ✈ 17-Apr-2014 ✈ KDEN - KIND

Flight Track Log - Related Links

Times and Time Zones

All times are in EDT time to prevent confusion due to time zone crossing. See the ASQ4272 flight status page for this flight to view local times or setup timezone preferences in your user account.

Time Position Orientation Groundspeed Altitude Reporting Facility
EDT Latitude Longitude Course Direction KTS MPH feet Rate Location/Type
12:25PM 39.9219 -104.6672 85° East 197 227 6,900  Level Denver Center
12:26PM 39.9492 -104.5800 68° East 261 300 8,800 1,500 Climbing Denver Center
12:27PM 39.9525 -104.4753 88° East 289 333 10,000 581 Climbing Denver Center
12:28PM 39.8667 -104.0146 90° East  Level FlightAware Approximate
12:28PM 39.9472 -104.3406 93° East 348 400 10,000  Level Denver Center
12:29PM 39.8667 -103.8512 90° East  Level FlightAware Approximate
12:29PM 39.9344 -104.2167 98° East 349 402 11,100  Level Denver Center
12:30PM 39.8862 -103.6914 85° East  Level FlightAware Approximate
12:30PM 39.9208 -104.0892 98° East 352 405 13,200  Level Denver Center
12:31PM 39.8970 -103.5286 85° East  Level FlightAware Approximate
12:31PM 39.9067 -103.9503 98° East 359 413 15,400  Level Denver Center
12:32PM 39.8919 -103.8203 98° East 361 415 17,500 1,790 Climbing Denver Center
12:33PM 39.8853 -103.7025 94° East 351 404 19,100 1,984 Climbing Denver Center
12:34PM 39.9039 -103.5503 81° East 356 410 21,600 2,226 Climbing Denver Center
12:35PM 39.9186 -103.4253 81° East 355 409 23,700 1,984 Climbing Denver Center
12:37PM 39.9319 -103.3011 82° East 350 403 25,700 1,742 Climbing Denver Center
12:38PM 39.9458 -103.1783 82° East 345 397 27,300 1,258 Climbing Denver Center
12:39PM 39.9597 -103.0508 82° East 353 406 28,300 1,065 Climbing Denver Center
12:40PM 39.9772 -102.8914 82° East 371 427 29,500 1,065 Climbing Denver Center
12:41PM 39.9922 -102.7556 82° East 376 433 30,500 720 Climbing Denver Center
12:42PM 40.0072 -102.6153 82° East 389 448 31,000 240 Climbing Denver Center
12:43PM 40.0219 -102.4711 82° East 415 478 31,000 290 Level Denver Center
12:44PM 40.0403 -102.2944 82° East 436 502 31,600 774 Climbing Denver Center
12:45PM 40.0567 -102.1436 82° East 437 503 32,600 1,065 Climbing Denver Center
12:46PM 40.0728 -101.9700 83° East 434 499 33,800 1,016 Climbing Denver Center
12:47PM 40.0878 -101.8233 82° East 429 494 34,700 581 Climbing Denver Center
12:48PM 40.1053 -101.6506 82° East 429 494 35,000 145 Climbing Denver Center
12:49PM 40.1208 -101.4961 82° East 447 514 35,000  Level Denver Center
12:50PM 40.1381 -101.3069 83° East 464 534 35,000  Level Denver Center
12:51PM 40.1539 -101.1436 83° East 471 542 35,000  Level Denver Center
12:52PM 40.1711 -100.9517 83° East 477 549 35,000  Level Denver Center
12:53PM 40.1908 -100.7331 83° East 477 549 35,000  Level Denver Center
12:54PM 40.2039 -100.5681 84° East 477 549 35,000  Level Denver Center
12:55PM 40.2069 -100.3744 89° East 480 552 35,000  Level Denver Center
12:56PM 40.2100 -100.2061 89° East 482 555 35,000  Level Denver Center
12:57PM 40.2125 -100.0106 89° East 482 555 35,000  Level Denver Center
12:59PM 40.2150 -99.8269 89° East 482 555 35,000  Level Denver Center
01:00PM 40.2172 -99.6206 89° East 476 548 35,000  Level Denver Center
01:01PM 40.2175 -99.4492 90° East 475 547 35,000  Level Denver Center
01:01PM 40.2189 -99.3481 89° East 474 545 35,000  Level Minneapolis Center
01:02PM 40.2208 -99.1753 89° East 474 545 35,000  Level Minneapolis Center
01:03PM 40.2225 -98.9675 89° East 474 545 35,000  Level Minneapolis Center
01:04PM 40.2225 -98.7925 90° East 478 550 35,000  Level Minneapolis Center
01:06PM 40.2225 -98.6172 90° East 480 552 35,000  Level Minneapolis Center
01:07PM 40.2225 -98.4433 90° East 481 554 35,000  Level Minneapolis Center
01:08PM 40.2214 -98.2678 90° East 481 554 35,000  Level Minneapolis Center
01:09PM 40.2219 -98.0919 90° East 482 555 35,000  Level Minneapolis Center
01:10PM 40.2206 -97.8808 90° East 482 555 35,000  Level Minneapolis Center
01:11PM 40.2197 -97.7047 90° East 483 556 35,000  Level Minneapolis Center
01:12PM 40.2183 -97.5281 91° East 483 556 35,000  Level Minneapolis Center
01:13PM 40.2164 -97.3497 91° East 488 562 35,000  Level Minneapolis Center
01:14PM 40.2147 -97.1497 91° East 489 563 35,000  Level Minneapolis Center
01:15PM 40.2122 -96.9725 91° East 489 563 35,000  Level Minneapolis Center
01:16PM 40.2097 -96.7914 91° East 495 570 35,000  Level Minneapolis Center
01:17PM 40.2069 -96.6108 91° East 496 571 35,000  Level Minneapolis Center
01:18PM 40.2042 -96.4297 91° East 498 573 35,000  Level Minneapolis Center
01:19PM 40.2014 -96.2475 91° East 500 575 35,000  Level Minneapolis Center
01:20PM 40.1994 -96.0308 91° East 500 575 35,000  Level Minneapolis Center
01:21PM 40.1986 -95.8483 90° East 500 575 35,000  Level Minneapolis Center
01:22PM 40.1978 -95.6675 90° East 500 575 35,000  Level Minneapolis Center
01:23PM 40.1964 -95.4850 91° East 501 577 35,000  Level Minneapolis Center
01:24PM 40.1936 -95.3019 91° East 503 579 35,000  Level Minneapolis Center
01:25PM 40.1922 -95.0797 90° East 507 583 35,000  Level Minneapolis Center
01:26PM 40.1892 -94.8931 91° East 510 587 35,000  Level Minneapolis Center
01:27PM 40.1867 -94.6786 91° East 515 593 35,000  Level Kansas City Center
01:28PM 40.1828 -94.4911 91° East 515 593 35,000  Level Kansas City Center
01:29PM 40.1797 -94.3031 91° East 519 597 35,000  Level Kansas City Center
01:30PM 40.1747 -94.1250 92° East 519 597 35,000  Level Kansas City Center
01:31PM 40.1739 -93.9433 90° East 511 588 35,000  Level Kansas City Center
01:32PM 40.1711 -93.7297 91° East 496 571 35,000  Level Kansas City Center
01:33PM 40.1617 -93.5517 94° East 496 571 35,000  Level Kansas City Center
01:35PM 40.1569 -93.3717 92° East 496 571 35,000  Level Kansas City Center
01:36PM 40.1522 -93.1850 92° East 506 582 35,000  Level Kansas City Center
01:37PM 40.1475 -92.9994 92° East 513 590 35,000  Level Kansas City Center
01:38PM 40.1406 -92.7764 92° East 516 594 35,000  Level Kansas City Center
01:39PM 40.1344 -92.5931 92° East 518 596 35,000  Level Kansas City Center
01:40PM 40.1186 -92.4114 96° East 518 596 35,000  Level Kansas City Center
01:41PM 40.0989 -92.1947 97° East 516 594 35,000  Level Kansas City Center
01:42PM 40.0819 -92.0111 97° East 515 593 35,000  Level Kansas City Center
01:43PM 40.0644 -91.8286 97° East 515 593 35,000  Level Kansas City Center
01:44PM 40.0469 -91.6467 97° East 514 592 35,000  Level Kansas City Center
01:45PM 40.0306 -91.4669 97° East 509 586 35,000  Level Kansas City Center
01:46PM 40.0086 -91.2522 98° East 505 581 35,000  Level Kansas City Center
01:47PM 39.9897 -91.0739 98° East 504 580 35,000  Level Kansas City Center
01:48PM 39.9719 -90.8883 97° East 500 575 35,000  Level Kansas City Center
01:49PM 39.9533 -90.7108 98° East 498 573 35,000  Level Kansas City Center
01:50PM 39.9342 -90.5339 98° East 498 573 35,000  Level Kansas City Center
01:51PM 39.9150 -90.3594 98° East 494 568 35,000  Level Kansas City Center
01:52PM 39.8967 -90.1839 98° East 494 568 35,000  Level Kansas City Center
01:53PM 39.8736 -89.9747 98° East 494 568 35,000  Level Kansas City Center
01:54PM 39.8536 -89.7967 98° East 494 568 35,000 -576 Level Kansas City Center
01:55PM 39.8400 -89.6161 96° East 500 575 33,800 -960 Descending Kansas City Center
01:56PM 39.8414 -89.4367 89° East 501 577 33,000 -484 Descending Kansas City Center
01:57PM 39.8419 -89.2569 90° East 500 575 32,800 -823 Descending Kansas City Center
01:58PM 39.8419 -89.0400 90° East 500 575 31,300 -1,296 Descending Kansas City Center
01:59PM 39.8422 -88.8564 90° East 506 582 30,100 -1,728 Descending Kansas City Center
02:00PM 39.8428 -88.6786 90° East 498 573 27,700 -2,323 Descending Kansas City Center
02:01PM 39.8428 -88.5061 90° East 487 560 25,300 -1,790 Descending Kansas City Center
02:02PM 39.8425 -88.3406 90° East 474 545 24,000 -629 Descending Kansas City Center
02:04PM 39.8408 -88.1428 91° East 461 531 24,000  Level Kansas City Center
02:04PM 39.8383 -87.9917 91° East 461 531 24,000 -51 Level Indianapolis Center
02:05PM 39.8375 -87.8200 90° East 469 540 23,900 -1,694 Descending Indianapolis Center
02:07PM 39.8347 -87.6567 91° East 462 532 20,500 -2,952 Descending Indianapolis Center
02:08PM 39.8328 -87.5036 91° East 434 499 17,800 -2,710 Descending Indianapolis Center
02:09PM 39.8319 -87.3564 90° East 416 479 14,900 -2,661 Descending Indianapolis Center
02:10PM 39.8294 -87.1819 91° East 405 466 12,300 -1,403 Descending Indianapolis Center
02:11PM 39.8269 -87.0372 91° East 404 465 12,000 -145 Descending Indianapolis Center
02:12PM 39.8250 -86.8947 91° East 402 463 12,000 -98 Level Indianapolis Center
02:13PM 39.8225 -86.7589 91° East 385 443 11,800 -732 Descending Indianapolis Center
02:14PM 39.8200 -86.6442 92° East 332 382 10,500 -1,548 Descending Indianapolis Center
02:15PM 39.8178 -86.5331 91° East 311 358 8,600 -1,694 Descending Indianapolis Center
02:16PM 39.8156 -86.4256 92° East 303 349 7,000 -968 Descending Indianapolis Center
02:17PM 39.8089 -86.3261 95° East 275 316 6,600 -1,113 Descending Indianapolis Center
02:18PM 39.8103 -86.2314 89° East 228 262 4,700 -1,742 Descending Indianapolis Center
02:19PM 39.7725 -86.2125 159° South 183 211 3,000 -1,500 Descending Indianapolis Center
02:20PM 39.7483 -86.2433 224° Southwest 146 168 1,600 -1,016 Descending Indianapolis Center
02:21PM 39.7231 -86.2753 224° Southwest 131 151 900 -387 Descending Indianapolis Center
02:22PM 39.6986 -86.3050 223° Southwest 129 148 800 -97 Descending Indianapolis Center